Zeigler, Illinois
Current Conditions -  °F | °C
As of 12:15 AM on Saturday 29 Nov 2014 (Local Time) from KMWA Reporting Station
Clear Clear  
Wind Chill: 36°   Ceiling: Unl
Heat Index: 43°   Visibility: 10mi
Dew Point: 30°   Wind: 14mph
Humidity: 61%   Direction: 190°S
Pressure: 29.99"   Gusts: NA
Location:  37.9°N, 89.05°W
Report Text: KMWA 290615Z AUTO 19012KT 10SM CLR 06/M01 A2999 RMK AO2
Loading
Personal Weather Stations






























Interactive Weather Map New forecast layout! Learn more

10-Day Weather Forecast

Advertisements
Track Severe Weather on mobile